sensor_id;sensor_type;location;lat;lon;timestamp;pressure;altitude;pressure_sealevel;temperature;humidity
61394;BME280;48555;50.952;-0.120;2023-10-09T00:02:13;101732.75;;;16.21;77.12
61394;BME280;48555;50.952;-0.120;2023-10-09T00:04:40;101733.94;;;16.17;77.25
61394;BME280;48555;50.952;-0.120;2023-10-09T00:07:10;101724.72;;;16.11;77.27
61394;BME280;48555;50.952;-0.120;2023-10-09T00:09:36;101724.00;;;16.09;77.21
61394;BME280;48555;50.952;-0.120;2023-10-09T00:12:18;101726.66;;;16.09;77.45
61394;BME280;48555;50.952;-0.120;2023-10-09T00:14:51;101726.41;;;16.12;77.55
61394;BME280;48555;50.952;-0.120;2023-10-09T00:17:21;101733.50;;;16.12;77.51
61394;BME280;48555;50.952;-0.120;2023-10-09T00:19:47;101712.25;;;16.02;77.28
61394;BME280;48555;50.952;-0.120;2023-10-09T00:22:16;101721.63;;;16.06;77.48
61394;BME280;48555;50.952;-0.120;2023-10-09T00:24:54;101715.13;;;15.99;77.54
61394;BME280;48555;50.952;-0.120;2023-10-09T00:27:46;101715.63;;;15.93;77.40
61394;BME280;48555;50.952;-0.120;2023-10-09T00:30:14;101710.97;;;15.85;77.26
61394;BME280;48555;50.952;-0.120;2023-10-09T00:32:44;101710.34;;;15.82;77.17
61394;BME280;48555;50.952;-0.120;2023-10-09T00:35:32;101719.13;;;15.71;77.10
61394;BME280;48555;50.952;-0.120;2023-10-09T00:38:12;101719.81;;;15.62;77.40
61394;BME280;48555;50.952;-0.120;2023-10-09T00:40:47;101714.13;;;15.55;77.39
61394;BME280;48555;50.952;-0.120;2023-10-09T00:43:17;101713.53;;;15.52;77.42
61394;BME280;48555;50.952;-0.120;2023-10-09T00:45:46;101726.00;;;15.50;77.60
61394;BME280;48555;50.952;-0.120;2023-10-09T00:48:12;101726.00;;;15.50;77.49
61394;BME280;48555;50.952;-0.120;2023-10-09T00:50:48;101723.59;;;15.47;77.48
61394;BME280;48555;50.952;-0.120;2023-10-09T00:53:19;101732.22;;;15.49;77.48
61394;BME280;48555;50.952;-0.120;2023-10-09T00:55:57;101727.94;;;15.48;77.38
61394;BME280;48555;50.952;-0.120;2023-10-09T00:58:23;101714.03;;;15.45;77.27
61394;BME280;48555;50.952;-0.120;2023-10-09T01:00:52;101714.84;;;15.46;77.37
61394;BME280;48555;50.952;-0.120;2023-10-09T01:03:18;101714.03;;;15.45;77.44
61394;BME280;48555;50.952;-0.120;2023-10-09T01:05:54;101715.00;;;15.44;77.09
61394;BME280;48555;50.952;-0.120;2023-10-09T01:08:25;101724.81;;;15.42;77.15
61394;BME280;48555;50.952;-0.120;2023-10-09T01:10:56;101720.50;;;15.41;77.08
61394;BME280;48555;50.952;-0.120;2023-10-09T01:13:25;101706.94;;;15.35;77.35
61394;BME280;48555;50.952;-0.120;2023-10-09T01:16:07;101707.91;;;15.34;77.35
61394;BME280;48555;50.952;-0.120;2023-10-09T01:18:44;101710.25;;;15.26;77.25
61394;BME280;48555;50.952;-0.120;2023-10-09T01:21:10;101704.63;;;15.19;77.37
61394;BME280;48555;50.952;-0.120;2023-10-09T01:23:42;101712.28;;;15.11;77.38
61394;BME280;48555;50.952;-0.120;2023-10-09T01:26:26;101713.47;;;15.07;77.79
61394;BME280;48555;50.952;-0.120;2023-10-09T01:28:51;101717.66;;;15.09;77.61
61394;BME280;48555;50.952;-0.120;2023-10-09T01:31:24;101711.16;;;15.02;77.52
61394;BME280;48555;50.952;-0.120;2023-10-09T01:33:52;101719.44;;;15.09;77.55
61394;BME280;48555;50.952;-0.120;2023-10-09T01:36:19;101723.78;;;15.10;77.46
61394;BME280;48555;50.952;-0.120;2023-10-09T01:38:59;101722.06;;;15.09;77.22
61394;BME280;48555;50.952;-0.120;2023-10-09T01:41:25;101724.72;;;15.09;77.12
61394;BME280;48555;50.952;-0.120;2023-10-09T01:43:50;101726.63;;;15.07;77.04
61394;BME280;48555;50.952;-0.120;2023-10-09T01:46:16;101714.88;;;14.99;77.11
61394;BME280;48555;50.952;-0.120;2023-10-09T01:48:45;101717.84;;;14.95;77.48
61394;BME280;48555;50.952;-0.120;2023-10-09T01:51:14;101713.88;;;14.89;77.26
61394;BME280;48555;50.952;-0.120;2023-10-09T01:53:43;101709.19;;;14.82;77.58
61394;BME280;48555;50.952;-0.120;2023-10-09T01:56:11;101704.72;;;14.71;77.52
61394;BME280;48555;50.952;-0.120;2023-10-09T01:58:43;101715.72;;;14.76;77.54
61394;BME280;48555;50.952;-0.120;2023-10-09T02:01:12;101705.44;;;14.73;77.60
61394;BME280;48555;50.952;-0.120;2023-10-09T02:03:39;101702.25;;;14.81;77.49
61394;BME280;48555;50.952;-0.120;2023-10-09T02:06:07;101690.13;;;14.78;77.51
61394;BME280;48555;50.952;-0.120;2023-10-09T02:08:53;101708.00;;;14.86;77.48
61394;BME280;48555;50.952;-0.120;2023-10-09T02:11:19;101708.25;;;14.83;77.41
61394;BME280;48555;50.952;-0.120;2023-10-09T02:13:50;101712.03;;;14.79;77.41
61394;BME280;48555;50.952;-0.120;2023-10-09T02:16:26;101713.22;;;14.74;77.54
61394;BME280;48555;50.952;-0.120;2023-10-09T02:18:53;101712.25;;;14.75;77.72
61394;BME280;48555;50.952;-0.120;2023-10-09T02:21:21;101702.56;;;14.76;77.55
61394;BME280;48555;50.952;-0.120;2023-10-09T02:24:01;101695.63;;;14.75;77.56
61394;BME280;48555;50.952;-0.120;2023-10-09T02:26:31;101696.25;;;14.79;77.76
61394;BME280;48555;50.952;-0.120;2023-10-09T02:29:05;101698.03;;;14.78;77.66
61394;BME280;48555;50.952;-0.120;2023-10-09T02:31:41;101694.34;;;14.81;77.82
61394;BME280;48555;50.952;-0.120;2023-10-09T02:34:11;101699.38;;;14.84;77.62
61394;BME280;48555;50.952;-0.120;2023-10-09T02:36:40;101692.31;;;14.84;77.51
61394;BME280;48555;50.952;-0.120;2023-10-09T02:39:14;101691.56;;;14.82;77.44
61394;BME280;48555;50.952;-0.120;2023-10-09T02:41:52;101678.53;;;14.81;77.32
61394;BME280;48555;50.952;-0.120;2023-10-09T02:44:20;101688.94;;;14.82;77.43
61394;BME280;48555;50.952;-0.120;2023-10-09T02:46:51;101682.38;;;14.76;77.34
61394;BME280;48555;50.952;-0.120;2023-10-09T02:49:16;101684.78;;;14.80;77.31
61394;BME280;48555;50.952;-0.120;2023-10-09T02:51:42;101669.31;;;14.75;76.98
61394;BME280;48555;50.952;-0.120;2023-10-09T02:54:08;101679.50;;;14.80;77.33
61394;BME280;48555;50.952;-0.120;2023-10-09T02:56:52;101667.41;;;14.77;77.10
61394;BME280;48555;50.952;-0.120;2023-10-09T02:59:34;101665.47;;;14.79;76.95
61394;BME280;48555;50.952;-0.120;2023-10-09T03:02:00;101665.47;;;14.79;76.87
61394;BME280;48555;50.952;-0.120;2023-10-09T03:04:26;101664.78;;;14.77;77.07
61394;BME280;48555;50.952;-0.120;2023-10-09T03:06:56;101663.06;;;14.76;76.74
61394;BME280;48555;50.952;-0.120;2023-10-09T03:09:23;101670.13;;;14.75;76.76
61394;BME280;48555;50.952;-0.120;2023-10-09T03:12:02;101670.28;;;14.74;76.83
61394;BME280;48555;50.952;-0.120;2023-10-09T03:14:28;101666.91;;;14.72;76.80
61394;BME280;48555;50.952;-0.120;2023-10-09T03:16:54;101661.13;;;14.67;76.77
61394;BME280;48555;50.952;-0.120;2023-10-09T03:19:21;101661.38;;;14.64;76.91
61394;BME280;48555;50.952;-0.120;2023-10-09T03:21:47;101669.03;;;14.67;76.98
61394;BME280;48555;50.952;-0.120;2023-10-09T03:24:12;101672.50;;;14.67;76.79
61394;BME280;48555;50.952;-0.120;2023-10-09T03:26:37;101661.13;;;14.67;76.54
61394;BME280;48555;50.952;-0.120;2023-10-09T03:29:03;101665.56;;;14.66;76.69
61394;BME280;48555;50.952;-0.120;2023-10-09T03:31:35;101665.56;;;14.66;76.72
61394;BME280;48555;50.952;-0.120;2023-10-09T03:34:05;101669.38;;;14.62;76.33
61394;BME280;48555;50.952;-0.120;2023-10-09T03:36:30;101668.66;;;14.60;76.44
61394;BME280;48555;50.952;-0.120;2023-10-09T03:38:57;101669.50;;;14.61;76.60
61394;BME280;48555;50.952;-0.120;2023-10-09T03:41:26;101664.44;;;14.58;76.44
61394;BME280;48555;50.952;-0.120;2023-10-09T03:43:52;101660.38;;;14.53;76.61
61394;BME280;48555;50.952;-0.120;2023-10-09T03:46:19;101660.25;;;14.55;76.56
61394;BME280;48555;50.952;-0.120;2023-10-09T03:48:49;101660.38;;;14.53;76.69
61394;BME280;48555;50.952;-0.120;2023-10-09T03:51:16;101660.47;;;14.52;76.47
61394;BME280;48555;50.952;-0.120;2023-10-09T03:53:48;101651.56;;;14.42;76.55
61394;BME280;48555;50.952;-0.120;2023-10-09T03:56:14;101671.09;;;14.50;76.81
61394;BME280;48555;50.952;-0.120;2023-10-09T03:58:42;101661.41;;;14.51;76.52
61394;BME280;48555;50.952;-0.120;2023-10-09T04:01:13;101659.63;;;14.51;76.47
61394;BME280;48555;50.952;-0.120;2023-10-09T04:03:59;101659.63;;;14.51;76.63
61394;BME280;48555;50.952;-0.120;2023-10-09T04:06:26;101662.28;;;14.51;76.46
61394;BME280;48555;50.952;-0.120;2023-10-09T04:09:11;101656.25;;;14.49;76.77
61394;BME280;48555;50.952;-0.120;2023-10-09T04:11:46;101656.81;;;14.42;76.74
61394;BME280;48555;50.952;-0.120;2023-10-09T04:14:13;101652.09;;;14.34;76.87
61394;BME280;48555;50.952;-0.120;2023-10-09T04:16:49;101632.06;;;14.20;77.23
61394;BME280;48555;50.952;-0.120;2023-10-09T04:19:27;101636.25;;;14.23;77.20
61394;BME280;48555;50.952;-0.120;2023-10-09T04:21:53;101646.78;;;14.23;77.27
61394;BME280;48555;50.952;-0.120;2023-10-09T04:24:20;101640.69;;;14.22;76.88
61394;BME280;48555;50.952;-0.120;2023-10-09T04:26:46;101646.47;;;14.27;76.98
61394;BME280;48555;50.952;-0.120;2023-10-09T04:29:15;101635.44;;;14.22;76.79
61394;BME280;48555;50.952;-0.120;2023-10-09T04:31:52;101649.94;;;14.28;76.74
61394;BME280;48555;50.952;-0.120;2023-10-09T04:34:18;101645.50;;;14.28;76.93
61394;BME280;48555;50.952;-0.120;2023-10-09T04:36:47;101646.56;;;14.26;76.82
61394;BME280;48555;50.952;-0.120;2023-10-09T04:39:14;101646.91;;;14.21;76.63
61394;BME280;48555;50.952;-0.120;2023-10-09T04:41:56;101648.28;;;14.14;76.93
61394;BME280;48555;50.952;-0.120;2023-10-09T04:44:44;101655.56;;;14.11;76.96
61394;BME280;48555;50.952;-0.120;2023-10-09T04:47:28;101655.78;;;14.07;76.98
61394;BME280;48555;50.952;-0.120;2023-10-09T04:50:12;101652.41;;;14.05;76.76
61394;BME280;48555;50.952;-0.120;2023-10-09T04:52:40;101655.28;;;14.02;76.86
61394;BME280;48555;50.952;-0.120;2023-10-09T04:55:07;101653.81;;;13.98;76.76
61394;BME280;48555;50.952;-0.120;2023-10-09T04:57:43;101641.44;;;13.88;76.81
61394;BME280;48555;50.952;-0.120;2023-10-09T05:00:16;101644.50;;;13.94;76.71
61394;BME280;48555;50.952;-0.120;2023-10-09T05:02:48;101649.53;;;13.97;76.84
61394;BME280;48555;50.952;-0.120;2023-10-09T05:05:20;101643.41;;;13.97;76.72
61394;BME280;48555;50.952;-0.120;2023-10-09T05:08:04;101640.78;;;13.97;76.55
61394;BME280;48555;50.952;-0.120;2023-10-09T05:10:53;101645.19;;;13.96;76.81
61394;BME280;48555;50.952;-0.120;2023-10-09T05:13:25;101650.69;;;13.93;76.79
61394;BME280;48555;50.952;-0.120;2023-10-09T05:16:18;101654.25;;;13.92;76.70
61394;BME280;48555;50.952;-0.120;2023-10-09T05:18:45;101652.06;;;13.86;76.66
61394;BME280;48555;50.952;-0.120;2023-10-09T05:21:24;101649.66;;;13.83;76.92
61394;BME280;48555;50.952;-0.120;2023-10-09T05:23:55;101634.72;;;13.83;76.97
61394;BME280;48555;50.952;-0.120;2023-10-09T05:29:11;101645.63;;;13.90;76.86
61394;BME280;48555;50.952;-0.120;2023-10-09T05:31:55;101642.16;;;13.90;76.89
61394;BME280;48555;50.952;-0.120;2023-10-09T05:34:24;101645.97;;;13.85;76.91
61394;BME280;48555;50.952;-0.120;2023-10-09T05:37:00;101646.06;;;13.84;77.03
61394;BME280;48555;50.952;-0.120;2023-10-09T05:39:43;101651.34;;;13.84;76.93
61394;BME280;48555;50.952;-0.120;2023-10-09T05:42:08;101651.34;;;13.84;77.35
61394;BME280;48555;50.952;-0.120;2023-10-09T05:44:43;101658.25;;;13.85;77.24
61394;BME280;48555;50.952;-0.120;2023-10-09T05:47:40;101654.19;;;13.81;77.58
61394;BME280;48555;50.952;-0.120;2023-10-09T05:50:18;101666.09;;;13.74;77.97
61394;BME280;48555;50.952;-0.120;2023-10-09T05:52:44;101667.34;;;13.68;78.30
61394;BME280;48555;50.952;-0.120;2023-10-09T05:55:22;101666.50;;;13.68;78.66
61394;BME280;48555;50.952;-0.120;2023-10-09T06:00:22;101663.47;;;13.74;78.72
61394;BME280;48555;50.952;-0.120;2023-10-09T06:03:11;101676.38;;;13.77;78.57
61394;BME280;48555;50.952;-0.120;2023-10-09T06:05:53;101674.25;;;13.82;78.55
61394;BME280;48555;50.952;-0.120;2023-10-09T06:08:29;101680.38;;;13.82;78.69
61394;BME280;48555;50.952;-0.120;2023-10-09T06:11:11;101675.72;;;13.86;78.61
61394;BME280;48555;50.952;-0.120;2023-10-09T06:13:58;101656.72;;;13.82;78.55
61394;BME280;48555;50.952;-0.120;2023-10-09T06:16:39;101667.63;;;13.89;78.50
61394;BME280;48555;50.952;-0.120;2023-10-09T06:19:08;101670.97;;;13.91;78.37
61394;BME280;48555;50.952;-0.120;2023-10-09T06:21:40;101671.09;;;13.90;78.20
61394;BME280;48555;50.952;-0.120;2023-10-09T06:24:18;101674.56;;;13.90;78.47
61394;BME280;48555;50.952;-0.120;2023-10-09T06:26:45;101680.25;;;13.84;78.64
61394;BME280;48555;50.952;-0.120;2023-10-09T06:29:26;101678.47;;;13.84;78.79
61394;BME280;48555;50.952;-0.120;2023-10-09T06:32:05;101672.50;;;13.82;78.80
61394;BME280;48555;50.952;-0.120;2023-10-09T06:35:03;101668.91;;;13.83;78.72
61394;BME280;48555;50.952;-0.120;2023-10-09T06:37:48;101670.03;;;13.79;78.78
61394;BME280;48555;50.952;-0.120;2023-10-09T06:40:36;101682.34;;;13.79;78.72
61394;BME280;48555;50.952;-0.120;2023-10-09T06:43:17;101679.00;;;13.77;79.13
61394;BME280;48555;50.952;-0.120;2023-10-09T06:45:56;101676.59;;;13.74;78.89
61394;BME280;48555;50.952;-0.120;2023-10-09T06:48:44;101666.59;;;13.79;79.25
61394;BME280;48555;50.952;-0.120;2023-10-09T06:51:22;101676.78;;;13.83;79.17
61394;BME280;48555;50.952;-0.120;2023-10-09T06:53:51;101694.53;;;13.93;79.28
61394;BME280;48555;50.952;-0.120;2023-10-09T06:56:19;101690.94;;;14.06;79.33
61394;BME280;48555;50.952;-0.120;2023-10-09T07:01:29;101715.31;;;14.45;79.18
61394;BME280;48555;50.952;-0.120;2023-10-09T07:04:05;101708.78;;;14.75;78.96
61394;BME280;48555;50.952;-0.120;2023-10-09T07:07:05;101709.16;;;15.17;78.93
61394;BME280;48555;50.952;-0.120;2023-10-09T07:09:38;101706.00;;;15.58;78.43
61394;BME280;48555;50.952;-0.120;2023-10-09T07:12:29;101696.78;;;16.09;77.50
61394;BME280;48555;50.952;-0.120;2023-10-09T07:15:01;101700.25;;;16.53;76.90
61394;BME280;48555;50.952;-0.120;2023-10-09T07:17:27;101702.44;;;16.91;76.03
61394;BME280;48555;50.952;-0.120;2023-10-09T07:20:01;101719.69;;;17.37;75.12
61394;BME280;48555;50.952;-0.120;2023-10-09T07:22:38;101721.09;;;17.62;74.24
61394;BME280;48555;50.952;-0.120;2023-10-09T07:25:19;101727.19;;;17.84;73.18
61394;BME280;48555;50.952;-0.120;2023-10-09T07:28:03;101726.13;;;18.06;73.17
61394;BME280;48555;50.952;-0.120;2023-10-09T07:30:43;101738.38;;;18.47;72.64
61394;BME280;48555;50.952;-0.120;2023-10-09T07:33:09;101736.19;;;18.91;71.78
61394;BME280;48555;50.952;-0.120;2023-10-09T07:35:39;101741.31;;;19.41;70.21
61394;BME280;48555;50.952;-0.120;2023-10-09T07:38:07;101751.28;;;19.67;69.14
61394;BME280;48555;50.952;-0.120;2023-10-09T07:40:37;101737.22;;;19.94;68.06
61394;BME280;48555;50.952;-0.120;2023-10-09T07:43:22;101740.78;;;20.12;66.74
61394;BME280;48555;50.952;-0.120;2023-10-09T07:46:10;101740.59;;;20.41;66.30
61394;BME280;48555;50.952;-0.120;2023-10-09T07:49:01;101749.38;;;20.70;65.71
61394;BME280;48555;50.952;-0.120;2023-10-09T07:51:35;101727.50;;;20.76;65.20
61394;BME280;48555;50.952;-0.120;2023-10-09T07:54:01;101712.16;;;20.87;64.60
61394;BME280;48555;50.952;-0.120;2023-10-09T07:56:42;101719.88;;;20.99;64.39
61394;BME280;48555;50.952;-0.120;2023-10-09T07:59:12;101733.56;;;21.04;63.98
61394;BME280;48555;50.952;-0.120;2023-10-09T08:04:02;101757.94;;;20.81;63.99
61394;BME280;48555;50.952;-0.120;2023-10-09T08:06:37;101748.84;;;20.66;64.41
61394;BME280;48555;50.952;-0.120;2023-10-09T08:09:08;101733.84;;;20.47;64.33
61394;BME280;48555;50.952;-0.120;2023-10-09T08:11:41;101718.16;;;20.26;64.83
61394;BME280;48555;50.952;-0.120;2023-10-09T08:14:14;101715.13;;;20.03;65.00
61394;BME280;48555;50.952;-0.120;2023-10-09T08:16:58;101731.66;;;19.87;65.83
61394;BME280;48555;50.952;-0.120;2023-10-09T08:19:48;101746.25;;;19.64;65.85
61394;BME280;48555;50.952;-0.120;2023-10-09T08:22:28;101742.97;;;19.42;66.30
61394;BME280;48555;50.952;-0.120;2023-10-09T08:24:53;101750.00;;;19.24;66.17
61394;BME280;48555;50.952;-0.120;2023-10-09T08:27:26;101736.44;;;19.17;66.57
61394;BME280;48555;50.952;-0.120;2023-10-09T08:30:02;101721.09;;;19.11;66.86
61394;BME280;48555;50.952;-0.120;2023-10-09T08:32:46;101706.47;;;19.07;67.64
61394;BME280;48555;50.952;-0.120;2023-10-09T08:35:35;101712.06;;;19.04;67.82
61394;BME280;48555;50.952;-0.120;2023-10-09T08:38:13;101748.19;;;18.95;68.16
61394;BME280;48555;50.952;-0.120;2023-10-09T08:40:40;101758.94;;;18.94;68.69
61394;BME280;48555;50.952;-0.120;2023-10-09T08:43:08;101757.97;;;18.95;68.73
61394;BME280;48555;50.952;-0.120;2023-10-09T08:45:37;101741.06;;;18.96;69.08
61394;BME280;48555;50.952;-0.120;2023-10-09T08:48:08;101727.97;;;18.94;69.30
61394;BME280;48555;50.952;-0.120;2023-10-09T08:50:33;101734.25;;;18.93;69.43
61394;BME280;48555;50.952;-0.120;2023-10-09T08:53:01;101758.66;;;18.97;69.24
61394;BME280;48555;50.952;-0.120;2023-10-09T08:55:28;101770.94;;;18.98;69.48
61394;BME280;48555;50.952;-0.120;2023-10-09T08:57:54;101759.06;;;19.02;69.40
61394;BME280;48555;50.952;-0.120;2023-10-09T09:00:22;101748.88;;;19.07;69.71
61394;BME280;48555;50.952;-0.120;2023-10-09T09:02:52;101756.53;;;19.20;69.66
61394;BME280;48555;50.952;-0.120;2023-10-09T09:05:19;101762.69;;;19.30;69.47
61394;BME280;48555;50.952;-0.120;2023-10-09T09:07:46;101765.44;;;19.38;68.99
61394;BME280;48555;50.952;-0.120;2023-10-09T09:10:11;101760.53;;;19.43;68.02
61394;BME280;48555;50.952;-0.120;2023-10-09T09:12:46;101763.06;;;19.45;67.17
61394;BME280;48555;50.952;-0.120;2023-10-09T09:15:16;101754.94;;;19.46;66.64
61394;BME280;48555;50.952;-0.120;2023-10-09T09:17:44;101754.81;;;19.48;66.27
61394;BME280;48555;50.952;-0.120;2023-10-09T09:20:20;101769.75;;;19.49;66.22
61394;BME280;48555;50.952;-0.120;2023-10-09T09:22:54;101768.75;;;19.50;66.29
61394;BME280;48555;50.952;-0.120;2023-10-09T09:25:27;101775.59;;;19.52;66.26
61394;BME280;48555;50.952;-0.120;2023-10-09T09:28:04;101758.16;;;19.60;65.92
61394;BME280;48555;50.952;-0.120;2023-10-09T09:30:38;101730.34;;;19.64;65.62
61394;BME280;48555;50.952;-0.120;2023-10-09T09:33:19;101739.28;;;19.72;66.04
61394;BME280;48555;50.952;-0.120;2023-10-09T09:36:03;101758.66;;;19.83;65.85
61394;BME280;48555;50.952;-0.120;2023-10-09T09:38:31;101760.72;;;19.89;65.62
61394;BME280;48555;50.952;-0.120;2023-10-09T09:41:17;101765.00;;;20.00;65.56
61394;BME280;48555;50.952;-0.120;2023-10-09T09:43:56;101760.91;;;20.05;65.11
61394;BME280;48555;50.952;-0.120;2023-10-09T09:46:26;101775.44;;;20.11;64.61
61394;BME280;48555;50.952;-0.120;2023-10-09T09:49:00;101765.75;;;20.19;64.61
61394;BME280;48555;50.952;-0.120;2023-10-09T09:51:26;101739.59;;;20.25;64.64
61394;BME280;48555;50.952;-0.120;2023-10-09T09:53:55;101756.06;;;20.28;64.25
61394;BME280;48555;50.952;-0.120;2023-10-09T09:56:23;101791.38;;;20.38;64.24
61394;BME280;48555;50.952;-0.120;2023-10-09T09:58:50;101770.06;;;20.48;63.53
61394;BME280;48555;50.952;-0.120;2023-10-09T10:01:19;101774.19;;;20.60;63.46
61394;BME280;48555;50.952;-0.120;2023-10-09T10:06:31;101767.44;;;20.84;63.50
61394;BME280;48555;50.952;-0.120;2023-10-09T10:08:57;101748.09;;;20.92;63.36
61394;BME280;48555;50.952;-0.120;2023-10-09T10:14:07;101712.66;;;21.09;62.89
61394;BME280;48555;50.952;-0.120;2023-10-09T10:17:02;101721.22;;;21.21;62.25
61394;BME280;48555;50.952;-0.120;2023-10-09T10:22:26;101720.34;;;21.38;61.84
61394;BME280;48555;50.952;-0.120;2023-10-09T10:24:58;101732.38;;;21.42;61.29
61394;BME280;48555;50.952;-0.120;2023-10-09T10:27:28;101728.56;;;21.45;60.86
61394;BME280;48555;50.952;-0.120;2023-10-09T10:32:56;101734.59;;;21.55;60.25
61394;BME280;48555;50.952;-0.120;2023-10-09T10:35:40;101775.03;;;21.59;59.17
61394;BME280;48555;50.952;-0.120;2023-10-09T10:38:44;101767.03;;;21.59;57.20
61394;BME280;48555;50.952;-0.120;2023-10-09T10:41:18;101762.91;;;21.64;57.04
61394;BME280;48555;50.952;-0.120;2023-10-09T10:43:56;101767.91;;;21.67;57.27
61394;BME280;48555;50.952;-0.120;2023-10-09T10:46:24;101752.31;;;21.72;56.50
61394;BME280;48555;50.952;-0.120;2023-10-09T10:48:56;101723.41;;;21.77;56.64
61394;BME280;48555;50.952;-0.120;2023-10-09T10:51:34;101728.59;;;21.87;57.04
61394;BME280;48555;50.952;-0.120;2023-10-09T10:54:03;101733.28;;;21.93;57.32
61394;BME280;48555;50.952;-0.120;2023-10-09T10:57:01;101729.50;;;22.04;56.96
61394;BME280;48555;50.952;-0.120;2023-10-09T10:59:31;101729.69;;;22.11;56.82
61394;BME280;48555;50.952;-0.120;2023-10-09T11:02:03;101735.50;;;22.14;56.98
61394;BME280;48555;50.952;-0.120;2023-10-09T11:04:34;101728.19;;;22.16;56.84
61394;BME280;48555;50.952;-0.120;2023-10-09T11:07:10;101719.78;;;22.21;56.98
61394;BME280;48555;50.952;-0.120;2023-10-09T11:12:31;101709.63;;;22.33;57.33
61394;BME280;48555;50.952;-0.120;2023-10-09T11:15:15;101715.63;;;22.43;57.36
61394;BME280;48555;50.952;-0.120;2023-10-09T11:18:07;101720.66;;;22.54;57.13
61394;BME280;48555;50.952;-0.120;2023-10-09T11:20:43;101716.16;;;22.63;57.37
61394;BME280;48555;50.952;-0.120;2023-10-09T11:23:22;101721.31;;;22.73;57.26
61394;BME280;48555;50.952;-0.120;2023-10-09T11:26:04;101723.81;;;22.82;57.24
61394;BME280;48555;50.952;-0.120;2023-10-09T11:29:23;101713.00;;;22.92;57.20
61394;BME280;48555;50.952;-0.120;2023-10-09T11:32:07;101715.38;;;23.03;57.19
61394;BME280;48555;50.952;-0.120;2023-10-09T11:34:43;101718.69;;;23.13;56.55
61394;BME280;48555;50.952;-0.120;2023-10-09T11:37:17;101706.66;;;23.18;56.37
61394;BME280;48555;50.952;-0.120;2023-10-09T11:39:56;101706.34;;;23.21;56.28
61394;BME280;48555;50.952;-0.120;2023-10-09T11:42:22;101712.31;;;23.23;56.27
61394;BME280;48555;50.952;-0.120;2023-10-09T11:45:21;101715.66;;;23.25;55.88
61394;BME280;48555;50.952;-0.120;2023-10-09T11:47:52;101714.50;;;23.27;55.59
61394;BME280;48555;50.952;-0.120;2023-10-09T11:50:44;101714.66;;;23.26;55.01
61394;BME280;48555;50.952;-0.120;2023-10-09T11:53:22;101711.66;;;23.29;54.98
61394;BME280;48555;50.952;-0.120;2023-10-09T11:55:48;101701.31;;;23.26;55.19
61394;BME280;48555;50.952;-0.120;2023-10-09T11:58:17;101697.47;;;23.28;54.94
61394;BME280;48555;50.952;-0.120;2023-10-09T12:00:58;101688.44;;;23.29;54.75
61394;BME280;48555;50.952;-0.120;2023-10-09T12:03:31;101693.97;;;23.36;54.83
61394;BME280;48555;50.952;-0.120;2023-10-09T12:06:01;101693.13;;;23.35;54.63
61394;BME280;48555;50.952;-0.120;2023-10-09T12:08:31;101688.16;;;23.32;52.97
61394;BME280;48555;50.952;-0.120;2023-10-09T12:10:57;101696.09;;;23.41;53.28
61394;BME280;48555;50.952;-0.120;2023-10-09T12:13:23;101682.28;;;23.37;53.53
61394;BME280;48555;50.952;-0.120;2023-10-09T12:15:52;101695.13;;;23.42;53.38
61394;BME280;48555;50.952;-0.120;2023-10-09T12:18:19;101699.09;;;23.46;53.69
61394;BME280;48555;50.952;-0.120;2023-10-09T12:20:45;101691.75;;;23.48;53.64
61394;BME280;48555;50.952;-0.120;2023-10-09T12:23:19;101697.91;;;23.56;54.14
61394;BME280;48555;50.952;-0.120;2023-10-09T12:25:44;101686.22;;;23.57;54.15
61394;BME280;48555;50.952;-0.120;2023-10-09T12:28:10;101670.69;;;23.61;53.96
61394;BME280;48555;50.952;-0.120;2023-10-09T12:30:37;101670.66;;;23.69;54.07
61394;BME280;48555;50.952;-0.120;2023-10-09T12:33:05;101660.31;;;23.74;53.73
61394;BME280;48555;50.952;-0.120;2023-10-09T12:35:39;101649.44;;;23.76;53.76
61394;BME280;48555;50.952;-0.120;2023-10-09T12:38:05;101653.44;;;23.80;53.86
61394;BME280;48555;50.952;-0.120;2023-10-09T12:40:35;101637.72;;;23.85;53.68
61394;BME280;48555;50.952;-0.120;2023-10-09T12:43:01;101633.69;;;23.89;53.43
61394;BME280;48555;50.952;-0.120;2023-10-09T12:45:26;101614.69;;;23.84;54.05
61394;BME280;48555;50.952;-0.120;2023-10-09T12:47:53;101626.63;;;23.96;53.71
61394;BME280;48555;50.952;-0.120;2023-10-09T12:50:19;101628.78;;;24.01;53.55
61394;BME280;48555;50.952;-0.120;2023-10-09T12:52:56;101633.78;;;24.04;53.44
61394;BME280;48555;50.952;-0.120;2023-10-09T12:55:27;101636.59;;;24.02;53.22
61394;BME280;48555;50.952;-0.120;2023-10-09T12:57:59;101630.28;;;24.03;53.22
61394;BME280;48555;50.952;-0.120;2023-10-09T13:00:26;101629.72;;;24.08;53.09
61394;BME280;48555;50.952;-0.120;2023-10-09T13:02:52;101622.53;;;24.09;52.95
61394;BME280;48555;50.952;-0.120;2023-10-09T13:05:17;101622.38;;;24.10;53.20
61394;BME280;48555;50.952;-0.120;2023-10-09T13:07:54;101621.00;;;24.14;53.20
61394;BME280;48555;50.952;-0.120;2023-10-09T13:10:25;101624.16;;;24.18;52.73
61394;BME280;48555;50.952;-0.120;2023-10-09T13:12:51;101617.81;;;24.19;53.12
61394;BME280;48555;50.952;-0.120;2023-10-09T13:15:21;101613.94;;;24.21;52.89
61394;BME280;48555;50.952;-0.120;2023-10-09T13:17:46;101609.78;;;24.19;52.34
61394;BME280;48555;50.952;-0.120;2023-10-09T13:20:12;101586.81;;;24.10;52.29
61394;BME280;48555;50.952;-0.120;2023-10-09T13:22:38;101598.28;;;24.18;52.44
61394;BME280;48555;50.952;-0.120;2023-10-09T13:25:05;101605.94;;;24.21;52.63
61394;BME280;48555;50.952;-0.120;2023-10-09T13:27:31;101604.75;;;24.24;52.83
61394;BME280;48555;50.952;-0.120;2023-10-09T13:30:00;101605.00;;;24.29;52.80
61394;BME280;48555;50.952;-0.120;2023-10-09T13:32:31;101612.69;;;24.32;52.84
61394;BME280;48555;50.952;-0.120;2023-10-09T13:35:03;101617.84;;;24.34;52.93
61394;BME280;48555;50.952;-0.120;2023-10-09T13:37:29;101623.19;;;24.34;52.95